Archival Weather

Chicago O'Hare International

Chicago, Illinois (KORD)

Report from: Thursday, December 29, 2022 2:51 PM CST
Current time: Friday, June 21, 2024 3:28 AM CDT

Current weather – Weather history – Daily summaries
Weather forecast

Temperature14.4°C (57.9°F)
Dew point10.6°C (51.1°F)
Winds 11 kts (5.7 m/s, 12.7 mph) South (170°)
Visibility10 mi. (16.1 km)
Clouds Ceiling: Broken clouds 2,100 ft. (640 m)
Overcast 3,000 ft. (914 m)
Altimeter29.79 in.Hg (1009 mB)
Relative humidity78 %
Density altitude260 ft. (79 m)
Sea-level pressure100.9 kPa (1009 mB, 29.79 in.Hg)
Remarks System requires maintenance
Automated weather observing station with precipitation discriminator
Pressure falling more slowly
Flight conditions Marginal Visual Meteorological Conditions
Raw dataKORD 292051Z 17011KT 10SM BKN021 OVC030 14/11 A2979 RMK AO2 SLP088 T01440106 56005 $
An error has occurred. This application may no longer respond until reloaded. Reload 🗙